Terminal Aerodrome Forecast
Issued by NWS

Home | Current Version | Previous Version | Text Only | Print | Product List | Glossary On
Versions: 1 2 3 4 5 6 7 8 9 10 11 12 13 14 15 16 17 18 19 20 21 22 23 24 25
000
FTUS43 KDLH 261400 AAC
TAFBRD
TAF AMD
KBRD 261443Z 2615/2712 03006KT P6SM OVC010
      TEMPO 2615/2618 4SM BR OVC007
     FM261800 VRB05KT P6SM OVC015
      TEMPO 2618/2620 BKN050
     FM262100 VRB06KT P6SM BKN050
     FM270000 VRB05KT P6SM SCT050
     FM270800 VRB05KT 4SM BR SCT050=

USA.gov is the U.S. government's official web portal to all federal, state and local government web resources and services.